Time;durP1;ratioP1;P1;durP2;ratioP2;P2;SDS_P1;SDS_P2;PMS_P1;PMS_P2;Temp;Humidity;BMP_temperature;BMP_pressure;BME280_temperature;BME280_humidity;BME280_pressure;Samples;Min_cycle;Max_cycle;Signal;HPM_P1;HPM_P2
2020/12/27 00:00:43;;;;;;;9.68;2.28;;;7.80;99.90;;;;;;5091381;28;20145;-82
2020/12/27 00:03:09;;;;;;;13.73;2.60;;;7.80;99.90;;;;;;5092102;28;20437;-83
2020/12/27 00:05:34;;;;;;;18.92;2.90;;;7.80;99.90;;;;;;5074924;28;20024;-82
2020/12/27 00:08:00;;;;;;;13.82;3.28;;;7.80;99.90;;;;;;5074494;28;20364;-82
2020/12/27 00:10:26;;;;;;;13.70;2.80;;;7.80;99.90;;;;;;5091550;28;20028;-81
2020/12/27 00:12:52;;;;;;;12.80;3.25;;;7.80;99.90;;;;;;5091194;28;20036;-80
2020/12/27 00:15:17;;;;;;;16.52;3.45;;;7.80;99.90;;;;;;5090543;28;20028;-82
2020/12/27 00:17:43;;;;;;;15.27;4.40;;;7.80;99.90;;;;;;5091043;28;20036;-81
2020/12/27 00:20:09;;;;;;;18.80;3.78;;;7.80;99.90;;;;;;5074490;28;20115;-82
2020/12/27 00:22:35;;;;;;;13.32;2.92;;;7.80;99.90;;;;;;5091047;28;20317;-82
2020/12/27 00:25:01;;;;;;;14.40;2.30;;;7.80;99.90;;;;;;5091543;28;20089;-81
2020/12/27 00:27:27;;;;;;;14.15;2.83;;;7.80;99.90;;;;;;5090767;28;20075;-80
2020/12/27 00:29:52;;;;;;;15.25;2.47;;;7.80;99.90;;;;;;5090982;28;20024;-82
2020/12/27 00:32:18;;;;;;;15.10;2.13;;;7.80;99.90;;;;;;5074593;28;20036;-81
2020/12/27 00:34:44;;;;;;;11.77;2.17;;;7.80;99.90;;;;;;5091989;28;20036;-81
2020/12/27 00:37:10;;;;;;;12.25;2.33;;;7.80;99.90;;;;;;5090323;28;20054;-81
2020/12/27 00:39:35;;;;;;;10.82;1.30;;;7.80;99.90;;;;;;5073112;28;20062;-81
2020/12/27 00:42:04;;;;;;;7.22;1.50;;;7.70;99.90;;;;;;5072782;28;20490;-81
2020/12/27 00:44:30;;;;;;;4.07;1.45;;;7.70;99.90;;;;;;5090084;28;20134;-81
2020/12/27 00:46:56;;;;;;;3.47;1.20;;;7.60;99.90;;;;;;5072370;28;20028;-82
2020/12/27 00:49:22;;;;;;;4.10;1.25;;;7.50;99.90;;;;;;5090924;28;20148;-81
2020/12/27 00:51:50;;;;;;;5.47;0.98;;;7.50;99.90;;;;;;5090349;28;20035;-81
2020/12/27 00:54:16;;;;;;;10.38;1.80;;;7.40;99.90;;;;;;5088997;28;20035;-84
2020/12/27 00:56:42;;;;;;;3.80;1.02;;;7.30;99.90;;;;;;5090697;28;20036;-82
2020/12/27 00:59:08;;;;;;;2.90;0.70;;;7.30;99.90;;;;;;5089073;28;20383;-81
2020/12/27 01:01:33;;;;;;;2.97;0.88;;;7.30;99.90;;;;;;5089370;28;20024;-83
2020/12/27 01:03:59;;;;;;;3.47;0.82;;;7.20;99.90;;;;;;5072409;28;20501;-83
2020/12/27 01:06:26;;;;;;;2.83;0.75;;;7.20;99.90;;;;;;5089149;28;20425;-81
2020/12/27 01:08:55;;;;;;;4.63;0.70;;;7.20;99.90;;;;;;5090632;28;20036;-81
2020/12/27 01:11:22;;;;;;;5.53;1.02;;;7.10;99.90;;;;;;5090535;28;20027;-81
2020/12/27 01:13:48;;;;;;;8.43;1.80;;;7.10;99.90;;;;;;5088870;28;20447;-80
2020/12/27 01:16:18;;;;;;;3.72;0.80;;;7.00;99.90;;;;;;5071854;28;20030;-82
2020/12/27 01:18:45;;;;;;;3.92;0.80;;;7.10;99.90;;;;;;5072634;28;20115;-84
2020/12/27 01:21:11;;;;;;;9.40;1.55;;;7.10;99.90;;;;;;5072048;28;20483;-82
2020/12/27 01:23:36;;;;;;;6.22;0.95;;;7.00;99.90;;;;;;5090252;28;20059;-81
2020/12/27 01:26:02;;;;;;;5.13;1.20;;;7.00;99.90;;;;;;5072111;28;20127;-83
2020/12/27 01:28:28;;;;;;;7.10;0.82;;;7.00;99.90;;;;;;5088098;28;20132;-82
2020/12/27 01:30:54;;;;;;;5.18;1.02;;;6.90;99.90;;;;;;5088505;28;20078;-82
2020/12/27 01:33:19;;;;;;;8.30;1.33;;;6.80;99.90;;;;;;5089898;28;20039;-83
2020/12/27 01:35:46;;;;;;;4.70;0.80;;;6.80;99.90;;;;;;5090017;28;20055;-84
2020/12/27 01:38:12;;;;;;;2.25;1.00;;;6.80;99.90;;;;;;5090247;28;20039;-81
2020/12/27 01:40:39;;;;;;;6.13;1.27;;;6.70;99.90;;;;;;5088418;28;20028;-81
2020/12/27 01:43:05;;;;;;;2.08;0.50;;;6.70;99.90;;;;;;5088264;28;20020;-82
2020/12/27 01:45:30;;;;;;;4.03;1.08;;;6.60;99.90;;;;;;5088094;28;20027;-81
2020/12/27 01:47:57;;;;;;;5.60;1.42;;;6.60;99.90;;;;;;5071049;28;20024;-81
2020/12/27 01:50:24;;;;;;;4.93;1.00;;;6.50;99.90;;;;;;5088168;28;20024;-83
2020/12/27 01:52:50;;;;;;;4.80;1.33;;;6.40;99.90;;;;;;5088217;28;20059;-82
2020/12/27 01:55:16;;;;;;;6.38;1.10;;;6.40;99.90;;;;;;5088205;28;20058;-81
2020/12/27 01:58:10;;;;;;;7.68;0.98;;;6.40;99.90;;;;;;5088345;28;20028;-83
2020/12/27 02:00:35;;;;;;;4.63;1.67;;;6.40;99.90;;;;;;5088887;28;20055;-82
2020/12/27 02:03:04;;;;;;;6.00;1.33;;;6.30;99.90;;;;;;5087983;28;20047;-82
2020/12/27 02:05:30;;;;;;;6.95;1.80;;;6.30;99.90;;;;;;5089043;28;20028;-82
2020/12/27 02:07:57;;;;;;;9.88;1.40;;;6.30;99.90;;;;;;5070634;28;20039;-82
2020/12/27 02:10:24;;;;;;;8.60;2.20;;;6.30;99.90;;;;;;5070602;28;20054;-83
2020/12/27 02:12:50;;;;;;;6.20;1.95;;;6.30;99.90;;;;;;5088773;28;20042;-82
2020/12/27 02:15:16;;;;;;;5.40;1.40;;;6.40;99.90;;;;;;5071082;28;20020;-81
2020/12/27 02:17:41;;;;;;;3.55;1.10;;;6.40;99.90;;;;;;5070234;28;20039;-82
2020/12/27 02:20:07;;;;;;;4.07;1.00;;;6.40;99.90;;;;;;5070517;28;20420;-81
2020/12/27 02:22:33;;;;;;;8.20;1.30;;;6.50;99.90;;;;;;5087191;28;20028;-81
2020/12/27 02:24:58;;;;;;;6.90;1.42;;;6.50;99.90;;;;;;5070406;28;20028;-81
2020/12/27 02:27:24;;;;;;;6.30;1.42;;;6.50;99.90;;;;;;5070200;28;20052;-82
2020/12/27 02:29:50;;;;;;;7.70;1.20;;;6.60;99.90;;;;;;5087310;28;20474;-84
2020/12/27 02:32:15;;;;;;;6.25;1.20;;;6.60;99.90;;;;;;5070441;28;20039;-83
2020/12/27 02:34:41;;;;;;;8.15;1.67;;;6.60;99.90;;;;;;5070126;28;20087;-83
2020/12/27 02:37:07;;;;;;;3.67;1.25;;;6.60;99.90;;;;;;5087168;28;20081;-82
2020/12/27 02:39:32;;;;;;;9.68;1.20;;;6.60;99.90;;;;;;5070244;28;20434;-84
2020/12/27 02:41:58;;;;;;;4.00;0.88;;;6.60;99.90;;;;;;5070138;28;20077;-81
2020/12/27 02:44:24;;;;;;;6.63;1.17;;;6.60;99.90;;;;;;5087023;28;20119;-83
2020/12/27 02:46:49;;;;;;;7.50;1.63;;;6.50;99.90;;;;;;5070079;28;20028;-81
2020/12/27 02:49:15;;;;;;;5.40;1.17;;;6.50;99.90;;;;;;5070119;28;20386;-82
2020/12/27 02:51:41;;;;;;;8.25;1.30;;;6.50;99.90;;;;;;5086707;28;20029;-80
2020/12/27 02:54:06;;;;;;;3.53;1.00;;;6.50;99.90;;;;;;5070004;28;20056;-81
2020/12/27 02:56:32;;;;;;;8.82;1.15;;;6.50;99.90;;;;;;5069975;28;20034;-82
2020/12/27 02:59:00;;;;;;;4.28;0.77;;;6.50;99.70;;;;;;5073788;28;20132;-83
2020/12/27 03:01:26;;;;;;;3.95;0.77;;;6.40;98.70;;;;;;5092294;28;20238;-83
2020/12/27 03:03:52;;;;;;;4.70;1.00;;;6.30;98.30;;;;;;5091308;28;20056;-82
2020/12/27 03:06:20;;;;;;;5.47;1.13;;;6.10;97.90;;;;;;5074412;28;20070;-82
2020/12/27 03:08:54;;;;;;;3.38;0.60;;;5.90;97.80;;;;;;5092954;28;20490;-82
2020/12/27 03:11:24;;;;;;;5.28;1.00;;;5.60;97.60;;;;;;5092569;28;20056;-81
2020/12/27 03:13:50;;;;;;;2.97;0.60;;;5.20;97.70;;;;;;5093341;28;20031;-79
2020/12/27 03:16:16;;;;;;;3.63;0.73;;;4.80;97.70;;;;;;5095137;28;20065;-81
2020/12/27 03:18:42;;;;;;;5.55;1.00;;;4.50;98.00;;;;;;5079134;28;20070;-82
2020/12/27 03:21:07;;;;;;;3.75;0.90;;;4.20;98.50;;;;;;5079628;28;20363;-81
2020/12/27 03:23:33;;;;;;;5.53;1.10;;;4.10;98.80;;;;;;5096215;28;20099;-82
2020/12/27 03:25:59;;;;;;;4.45;0.50;;;4.00;98.90;;;;;;5092988;28;20345;-81
2020/12/27 03:28:24;;;;;;;4.82;1.17;;;3.90;99.00;;;;;;5093896;28;20070;-81
2020/12/27 03:30:50;;;;;;;7.25;0.85;;;3.80;99.10;;;;;;5091755;28;20032;-82
2020/12/27 03:33:16;;;;;;;2.88;0.50;;;3.70;99.20;;;;;;5074499;28;20059;-80
2020/12/27 03:35:41;;;;;;;5.40;0.60;;;3.70;99.30;;;;;;5091419;28;20078;-80
2020/12/27 03:38:07;;;;;;;2.80;1.25;;;3.60;99.40;;;;;;5091356;28;20569;-82
2020/12/27 03:40:33;;;;;;;3.47;0.40;;;3.60;99.80;;;;;;5074199;28;20024;-81
2020/12/27 03:42:58;;;;;;;4.05;0.80;;;3.60;99.70;;;;;;5073903;28;20195;-81
2020/12/27 03:45:25;;;;;;;5.30;1.20;;;3.60;99.80;;;;;;5073758;28;20024;-81
2020/12/27 03:47:51;;;;;;;8.13;0.90;;;3.60;99.90;;;;;;5074308;28;20043;-81
2020/12/27 03:50:16;;;;;;;12.75;2.00;;;3.60;99.90;;;;;;5091282;28;20020;-83
2020/12/27 03:52:42;;;;;;;3.90;0.82;;;3.60;99.90;;;;;;5074495;28;20111;-81
2020/12/27 03:55:08;;;;;;;3.30;1.00;;;3.60;99.90;;;;;;5091113;28;20029;-81
2020/12/27 03:57:33;;;;;;;5.13;0.80;;;3.60;99.90;;;;;;5091191;28;20039;-84
2020/12/27 04:00:03;;;;;;;4.40;1.15;;;3.60;99.90;;;;;;5091372;28;20025;-81
2020/12/27 04:02:28;;;;;;;7.80;0.82;;;3.60;99.90;;;;;;5090728;28;20399;-82
2020/12/27 04:04:54;;;;;;;4.13;0.98;;;3.60;99.90;;;;;;5091907;28;20028;-84
2020/12/27 04:07:19;;;;;;;13.40;1.33;;;3.60;99.90;;;;;;5073998;28;20028;-81
2020/12/27 04:09:45;;;;;;;8.98;1.00;;;3.70;99.90;;;;;;5089746;28;20558;-81
2020/12/27 04:12:13;;;;;;;9.90;1.60;;;3.70;99.90;;;;;;5074079;28;20487;-81
2020/12/27 04:14:40;;;;;;;7.47;1.10;;;3.70;99.90;;;;;;5091327;28;20028;-81
2020/12/27 04:17:06;;;;;;;6.72;0.93;;;3.70;99.90;;;;;;5093630;28;20024;-81
2020/12/27 04:19:31;;;;;;;6.75;1.70;;;3.70;99.90;;;;;;5093063;28;20051;-81
2020/12/27 04:21:57;;;;;;;5.93;1.40;;;3.70;99.90;;;;;;5075675;28;20020;-81
2020/12/27 04:24:23;;;;;;;7.32;1.48;;;3.60;99.90;;;;;;5075267;28;20135;-81
2020/12/27 04:26:48;;;;;;;10.27;1.75;;;3.60;99.90;;;;;;5091401;28;20024;-82
2020/12/27 04:29:14;;;;;;;12.02;1.83;;;3.60;99.90;;;;;;5090087;28;20087;-81
2020/12/27 04:31:40;;;;;;;13.95;2.28;;;3.70;99.90;;;;;;5091467;28;20028;-80
2020/12/27 04:34:05;;;;;;;13.85;2.13;;;3.60;99.90;;;;;;5090595;28;20114;-82
2020/12/27 04:36:31;;;;;;;19.67;2.47;;;3.70;99.90;;;;;;5074218;28;20341;-81
2020/12/27 04:38:58;;;;;;;14.10;1.90;;;3.70;99.90;;;;;;5074515;28;20032;-81
2020/12/27 04:41:24;;;;;;;17.17;2.22;;;3.70;99.90;;;;;;5073743;28;20088;-81
2020/12/27 04:43:50;;;;;;;13.73;2.03;;;3.70;99.90;;;;;;5090785;28;20032;-81
2020/12/27 04:46:16;;;;;;;16.27;2.00;;;3.70;99.90;;;;;;5074265;28;20047;-82
2020/12/27 04:48:44;;;;;;;22.83;2.67;;;3.70;99.90;;;;;;5090646;28;20040;-81
2020/12/27 04:51:12;;;;;;;13.68;1.95;;;3.70;99.90;;;;;;5074930;28;20028;-81
2020/12/27 04:53:39;;;;;;;9.65;2.35;;;3.70;99.90;;;;;;5074403;28;20415;-81
2020/12/27 04:56:07;;;;;;;16.23;2.30;;;3.70;99.90;;;;;;5074973;28;20085;-81
2020/12/27 04:58:32;;;;;;;17.17;2.10;;;3.70;99.90;;;;;;5092839;28;20020;-82
2020/12/27 05:01:00;;;;;;;13.38;3.08;;;3.70;99.90;;;;;;5092786;28;20484;-82
2020/12/27 05:03:26;;;;;;;19.63;2.85;;;3.70;99.90;;;;;;5092199;28;20448;-81
2020/12/27 05:05:53;;;;;;;28.23;4.45;;;3.70;99.90;;;;;;5090535;28;20493;-82
2020/12/27 05:08:19;;;;;;;18.50;2.75;;;3.70;99.90;;;;;;5090723;28;20032;-81
2020/12/27 05:10:45;;;;;;;14.85;2.40;;;3.80;99.90;;;;;;5073655;28;20035;-81
2020/12/27 05:13:12;;;;;;;12.80;2.33;;;3.80;99.90;;;;;;5090320;28;20028;-81
2020/12/27 05:15:39;;;;;;;18.40;2.63;;;3.80;99.90;;;;;;5091124;28;20043;-81
2020/12/27 05:18:09;;;;;;;11.82;2.05;;;3.80;99.90;;;;;;5091555;28;20138;-82
2020/12/27 05:20:36;;;;;;;13.48;2.08;;;3.80;99.90;;;;;;5090588;28;20028;-81
2020/12/27 05:23:06;;;;;;;21.95;3.40;;;3.80;99.90;;;;;;5074034;28;20455;-81
2020/12/27 05:25:33;;;;;;;15.52;2.72;;;3.70;99.90;;;;;;5092547;28;20488;-81
2020/12/27 05:28:08;;;;;;;18.45;2.63;;;3.70;99.90;;;;;;5092190;28;20040;-81
2020/12/27 05:30:34;;;;;;;11.57;1.80;;;3.70;99.90;;;;;;5091067;28;20539;-81
2020/12/27 05:33:00;;;;;;;15.65;2.60;;;3.70;99.90;;;;;;5090690;28;20476;-81
2020/12/27 05:35:26;;;;;;;16.27;2.28;;;3.70;99.90;;;;;;5074470;28;20028;-81
2020/12/27 05:37:53;;;;;;;16.20;1.98;;;3.70;99.90;;;;;;5091466;28;20031;-82
2020/12/27 05:40:19;;;;;;;15.07;2.00;;;3.70;99.90;;;;;;5090822;28;20032;-81
2020/12/27 05:42:46;;;;;;;11.38;2.45;;;3.60;99.90;;;;;;5092506;28;20016;-81
2020/12/27 05:45:17;;;;;;;20.08;3.10;;;3.60;99.90;;;;;;5074023;28;20037;-82
2020/12/27 05:47:44;;;;;;;14.45;2.97;;;3.60;99.90;;;;;;5091258;28;20042;-81
2020/12/27 05:50:14;;;;;;;10.00;1.55;;;3.60;99.90;;;;;;5092795;28;20039;-82
2020/12/27 05:52:45;;;;;;;20.38;2.95;;;3.50;99.90;;;;;;5074511;28;20073;-81
2020/12/27 05:55:18;;;;;;;17.58;2.45;;;3.50;99.90;;;;;;5091979;28;20024;-81
2020/12/27 05:57:52;;;;;;;16.30;2.33;;;3.50;99.90;;;;;;5090365;28;20024;-82
2020/12/27 06:00:19;;;;;;;19.92;2.47;;;3.50;99.90;;;;;;5091086;28;20684;-81
2020/12/27 06:02:45;;;;;;;12.57;2.55;;;3.50;99.90;;;;;;5093099;28;20392;-82
2020/12/27 06:05:15;;;;;;;9.82;2.17;;;3.50;99.90;;;;;;5090734;28;20020;-82
2020/12/27 06:07:45;;;;;;;16.38;2.45;;;3.50;99.90;;;;;;5092673;28;20036;-82
2020/12/27 06:10:16;;;;;;;15.75;2.25;;;3.50;99.90;;;;;;5075013;28;20028;-81
2020/12/27 06:13:20;;;;;;;14.27;2.50;;;3.50;99.90;;;;;;5091882;28;20024;-81
2020/12/27 06:15:48;;;;;;;15.60;1.98;;;3.50;99.90;;;;;;5092305;28;20066;-82
2020/12/27 06:18:15;;;;;;;17.23;3.17;;;3.50;99.90;;;;;;5094367;28;20298;-81
2020/12/27 06:20:43;;;;;;;16.35;3.45;;;3.50;99.90;;;;;;5094882;28;20024;-81
2020/12/27 06:23:11;;;;;;;19.58;3.40;;;3.50;99.90;;;;;;5074501;28;20016;-83
2020/12/27 06:25:38;;;;;;;14.25;4.32;;;3.50;99.90;;;;;;5091863;28;20020;-82
2020/12/27 06:28:05;;;;;;;18.48;2.40;;;3.40;99.90;;;;;;5091963;28;20048;-81
2020/12/27 06:30:40;;;;;;;12.65;2.40;;;3.40;99.90;;;;;;5074727;28;20016;-81
2020/12/27 06:33:12;;;;;;;11.25;2.08;;;3.40;99.90;;;;;;5090489;28;20076;-81
2020/12/27 06:35:38;;;;;;;17.02;2.40;;;3.40;99.90;;;;;;5091667;28;20039;-80
2020/12/27 06:38:22;;;;;;;15.93;2.40;;;3.40;99.90;;;;;;5074371;28;20588;-81
2020/12/27 06:40:53;;;;;;;17.08;2.22;;;3.40;99.90;;;;;;5091993;28;20024;-81
2020/12/27 06:43:21;;;;;;;22.83;2.85;;;3.40;99.90;;;;;;5091079;28;20045;-80
2020/12/27 06:45:48;;;;;;;16.17;1.90;;;3.40;99.90;;;;;;5091753;28;20055;-81
2020/12/27 06:48:31;;;;;;;13.13;2.67;;;3.40;99.90;;;;;;5089753;28;20486;-81
2020/12/27 06:50:57;;;;;;;11.07;2.08;;;3.30;99.90;;;;;;5090521;28;20028;-80
2020/12/27 06:53:44;;;;;;;16.42;2.85;;;3.30;99.90;;;;;;5073855;28;20118;-79
2020/12/27 06:56:11;;;;;;;16.33;2.03;;;3.30;99.90;;;;;;5090472;28;20024;-81
2020/12/27 06:58:37;;;;;;;15.02;3.03;;;3.20;99.90;;;;;;5072805;28;20028;-81
2020/12/27 07:01:09;;;;;;;10.80;1.92;;;3.20;99.90;;;;;;5072377;28;20082;-81
2020/12/27 07:03:35;;;;;;;18.85;2.80;;;3.20;99.90;;;;;;5089922;28;20020;-83
2020/12/27 07:06:19;;;;;;;13.57;2.25;;;3.20;99.90;;;;;;5088929;28;20489;-80
2020/12/27 07:08:45;;;;;;;17.25;3.67;;;3.20;99.90;;;;;;5089437;28;20073;-81
2020/12/27 07:11:19;;;;;;;19.85;2.65;;;3.30;99.90;;;;;;5072720;28;20413;-81
2020/12/27 07:13:46;;;;;;;27.92;3.20;;;3.30;99.90;;;;;;5088822;28;20115;-81
2020/12/27 07:16:17;;;;;;;16.90;2.70;;;3.20;99.90;;;;;;5072648;28;20077;-81
2020/12/27 07:18:47;;;;;;;20.33;2.75;;;3.20;99.90;;;;;;5088854;28;20654;-83
2020/12/27 07:21:16;;;;;;;16.17;2.58;;;3.20;99.90;;;;;;5088488;28;20074;-79
2020/12/27 07:24:05;;;;;;;18.13;2.30;;;3.20;99.90;;;;;;5073001;28;20409;-81
2020/12/27 07:26:32;;;;;;;16.10;2.13;;;3.20;99.90;;;;;;5085323;28;20035;-79
2020/12/27 07:29:05;;;;;;;14.90;2.33;;;3.20;99.90;;;;;;5073562;28;20052;-81
2020/12/27 07:31:34;;;;;;;20.15;3.25;;;3.20;99.90;;;;;;5090958;28;20047;-79
2020/12/27 07:34:00;;;;;;;22.80;2.53;;;3.20;99.90;;;;;;5089592;28;20032;-81
2020/12/27 07:36:26;;;;;;;19.73;2.83;;;3.30;99.90;;;;;;5090704;28;20459;-80
2020/12/27 07:39:00;;;;;;;19.40;2.83;;;3.20;99.90;;;;;;5073805;28;20028;-81
2020/12/27 07:41:37;;;;;;;18.23;3.17;;;3.20;99.90;;;;;;5092401;28;20472;-83
2020/12/27 07:44:10;;;;;;;11.82;2.20;;;3.20;99.90;;;;;;5094165;28;20031;-80
2020/12/27 07:46:37;;;;;;;28.38;4.07;;;3.20;99.90;;;;;;5076876;28;20224;-80
2020/12/27 07:49:03;;;;;;;18.70;3.78;;;3.20;99.90;;;;;;5096251;28;20066;-80
2020/12/27 07:51:29;;;;;;;21.13;2.72;;;3.20;99.90;;;;;;5094923;28;20028;-80
2020/12/27 07:53:57;;;;;;;15.35;2.95;;;3.20;99.90;;;;;;5078066;28;20028;-80
2020/12/27 07:56:25;;;;;;;17.67;2.07;;;3.20;99.90;;;;;;5095828;28;20024;-82
2020/12/27 07:58:55;;;;;;;14.55;2.33;;;3.10;99.90;;;;;;5094267;28;20036;-80
2020/12/27 08:01:29;;;;;;;19.13;2.05;;;3.20;99.90;;;;;;5095408;28;20028;-81
2020/12/27 08:04:06;;;;;;;15.57;3.65;;;3.20;99.90;;;;;;5094377;28;20020;-82
2020/12/27 08:06:37;;;;;;;20.73;1.95;;;3.20;99.90;;;;;;5094241;28;20077;-80
2020/12/27 08:09:06;;;;;;;19.20;2.63;;;3.10;99.90;;;;;;5078963;28;20044;-81
2020/12/27 08:11:33;;;;;;;;;;;3.10;99.90;;;;;;5095208;28;20024;-79
2020/12/27 08:14:01;;;;;;;19.35;2.40;;;3.10;99.90;;;;;;5076834;28;20406;-80
2020/12/27 08:16:28;;;;;;;13.15;2.20;;;3.10;99.90;;;;;;5096818;28;20028;-80
2020/12/27 08:19:08;;;;;;;21.45;3.00;;;3.10;99.90;;;;;;5095147;28;20286;-81
2020/12/27 08:21:36;;;;;;;21.75;2.88;;;3.10;99.90;;;;;;5093024;28;20020;-82
2020/12/27 08:24:10;;;;;;;12.65;2.28;;;3.10;99.90;;;;;;5092854;28;20032;-82
2020/12/27 08:26:41;;;;;;;16.85;2.47;;;3.10;99.90;;;;;;5094108;28;20024;-81
2020/12/27 08:29:17;;;;;;;20.83;2.63;;;3.10;99.90;;;;;;5093181;28;20487;-83
2020/12/27 08:31:44;;;;;;;15.15;2.60;;;3.10;99.90;;;;;;5094375;28;20032;-81
2020/12/27 08:34:11;;;;;;;16.40;1.60;;;3.10;99.90;;;;;;5094581;28;20027;-81
2020/12/27 08:36:49;;;;;;;13.57;1.90;;;3.10;99.90;;;;;;5092732;28;20629;-84
2020/12/27 08:39:34;;;;;;;18.42;1.92;;;3.10;99.90;;;;;;5076409;28;20495;-80
2020/12/27 08:42:05;;;;;;;19.02;4.00;;;3.10;99.90;;;;;;5091515;28;20025;-82
2020/12/27 08:44:53;;;;;;;16.67;1.73;;;3.10;99.90;;;;;;5094424;28;20020;-81
2020/12/27 08:47:18;;;;;;;19.58;3.45;;;3.20;99.90;;;;;;5093778;28;20024;-81
2020/12/27 08:49:54;;;;;;;12.50;2.28;;;3.20;99.90;;;;;;5093994;28;20047;-82
2020/12/27 08:52:21;;;;;;;14.80;2.95;;;3.20;99.90;;;;;;5094123;28;20028;-81
2020/12/27 08:54:53;;;;;;;17.02;2.30;;;3.20;99.90;;;;;;5075172;28;20055;-81
2020/12/27 08:57:19;;;;;;;13.88;2.63;;;3.20;99.90;;;;;;5092671;28;20032;-81
2020/12/27 09:00:11;;;;;;;18.75;2.42;;;3.20;99.90;;;;;;5091283;28;20466;-82
2020/12/27 09:02:39;;;;;;;16.98;2.30;;;3.20;99.90;;;;;;5086195;28;20068;-82
2020/12/27 09:05:08;;;;;;;13.90;2.38;;;3.30;99.90;;;;;;5090528;28;20028;-81
2020/12/27 09:07:42;;;;;;;14.85;2.67;;;3.30;99.90;;;;;;5091804;28;20031;-82
2020/12/27 09:10:10;;;;;;;13.18;1.67;;;3.30;99.90;;;;;;5073949;28;20135;-80
2020/12/27 09:12:37;;;;;;;12.73;2.45;;;3.40;99.90;;;;;;5090359;28;20027;-82
2020/12/27 09:15:23;;;;;;;17.25;2.35;;;3.50;99.90;;;;;;5091035;28;20036;-82
2020/12/27 09:18:01;;;;;;;14.13;2.58;;;3.60;99.90;;;;;;5072907;28;20032;-83
2020/12/27 09:20:29;;;;;;;14.63;2.30;;;3.60;99.90;;;;;;5091984;28;20082;-82
2020/12/27 09:22:55;;;;;;;12.15;2.15;;;3.70;99.90;;;;;;5090488;28;20493;-83
2020/12/27 09:25:23;;;;;;;15.65;3.25;;;3.70;99.90;;;;;;5090384;28;20085;-82
2020/12/27 09:27:50;;;;;;;16.45;2.30;;;3.80;99.90;;;;;;5091532;28;20089;-80
2020/12/27 09:30:22;;;;;;;13.35;2.17;;;3.80;99.90;;;;;;5091889;28;20539;-80
2020/12/27 09:32:48;;;;;;;12.25;3.35;;;3.80;99.90;;;;;;5089954;28;20031;-81
2020/12/27 09:35:22;;;;;;;11.85;2.25;;;3.90;99.90;;;;;;5091776;28;20036;-82
2020/12/27 09:37:49;;;;;;;13.00;2.05;;;3.90;99.90;;;;;;5074147;28;20428;-81
2020/12/27 09:40:17;;;;;;;16.17;2.50;;;3.90;99.90;;;;;;5091393;28;20031;-83
2020/12/27 09:42:43;;;;;;;18.48;2.75;;;4.10;99.90;;;;;;5092239;28;20024;-81
2020/12/27 09:45:20;;;;;;;15.82;3.28;;;4.20;99.90;;;;;;5074912;28;20020;-81
2020/12/27 09:48:04;;;;;;;8.98;1.80;;;4.30;99.90;;;;;;5090775;28;20035;-77
2020/12/27 09:50:37;;;;;;;22.80;3.08;;;4.50;99.90;;;;;;5090126;28;20372;-81
2020/12/27 09:53:04;;;;;;;13.63;2.67;;;4.70;99.90;;;;;;5093493;28;20028;-81
2020/12/27 09:55:30;;;;;;;12.75;3.28;;;4.90;99.90;;;;;;5093861;28;20398;-82
2020/12/27 09:57:56;;;;;;;18.10;4.60;;;5.10;99.90;;;;;;5092812;28;20032;-81
2020/12/27 10:00:23;;;;;;;17.70;2.53;;;5.20;99.90;;;;;;5092449;28;20441;-82
2020/12/27 10:02:49;;;;;;;15.25;2.42;;;5.20;99.70;;;;;;5093215;28;20028;-81
2020/12/27 10:05:15;;;;;;;13.40;3.35;;;5.20;99.50;;;;;;5073719;28;20028;-83
2020/12/27 10:07:41;;;;;;;18.00;2.92;;;5.20;99.70;;;;;;5089903;28;20035;-81
2020/12/27 10:10:10;;;;;;;18.25;2.85;;;5.40;99.90;;;;;;5072962;28;20032;-82
2020/12/27 10:12:36;;;;;;;20.23;3.05;;;5.80;99.90;;;;;;5091620;28;20121;-81
2020/12/27 10:15:05;;;;;;;10.82;2.85;;;6.40;99.90;;;;;;5090071;28;20040;-82
2020/12/27 10:17:31;;;;;;;20.90;3.83;;;6.70;99.90;;;;;;5090568;28;20470;-80
2020/12/27 10:19:58;;;;;;;11.63;3.20;;;7.00;99.90;;;;;;5090488;28;20032;-82
2020/12/27 10:22:25;;;;;;;13.27;2.90;;;7.40;99.70;;;;;;5089687;28;20027;-82
2020/12/27 10:24:51;;;;;;;15.68;3.25;;;7.70;99.40;;;;;;5088432;28;20382;-82
2020/12/27 10:27:16;;;;;;;23.00;3.22;;;8.10;98.90;;;;;;5071534;28;20119;-82
2020/12/27 10:29:42;;;;;;;20.85;3.75;;;8.40;98.30;;;;;;5090035;28;20444;-82
2020/12/27 10:32:08;;;;;;;15.15;3.30;;;8.60;98.00;;;;;;5089854;28;20089;-82
2020/12/27 10:34:35;;;;;;;18.42;3.60;;;8.80;97.50;;;;;;5088897;28;20085;-82
2020/12/27 10:37:02;;;;;;;15.00;2.70;;;9.00;97.20;;;;;;5089758;28;20048;-82
2020/12/27 10:39:28;;;;;;;11.65;3.40;;;9.30;97.20;;;;;;5087691;28;20512;-82
2020/12/27 10:41:55;;;;;;;12.27;2.80;;;9.50;96.50;;;;;;5070302;28;20028;-82
2020/12/27 10:44:21;;;;;;;21.08;3.22;;;9.70;96.20;;;;;;5086904;28;20020;-83
2020/12/27 10:46:50;;;;;;;12.68;2.80;;;9.80;95.50;;;;;;5070205;28;20486;-83
2020/12/27 10:49:17;;;;;;;12.82;2.60;;;9.80;95.20;;;;;;5070170;28;20038;-82
2020/12/27 10:51:43;;;;;;;18.17;3.90;;;9.80;95.10;;;;;;5069916;28;20041;-84
2020/12/27 10:54:12;;;;;;;19.77;3.63;;;10.00;95.10;;;;;;5088101;28;20029;-82
2020/12/27 10:56:39;;;;;;;23.30;3.40;;;10.20;95.00;;;;;;5071575;28;20058;-83
2020/12/27 10:59:05;;;;;;;20.02;3.95;;;10.50;94.90;;;;;;5087479;28;20044;-82
2020/12/27 11:01:31;;;;;;;15.32;3.58;;;10.60;94.30;;;;;;5086908;28;20024;-83
2020/12/27 11:03:57;;;;;;;16.55;4.20;;;10.80;94.10;;;;;;5086822;28;20044;-84
2020/12/27 11:06:32;;;;;;;16.90;3.75;;;10.90;93.50;;;;;;5070057;28;20047;-82
2020/12/27 11:08:59;;;;;;;18.52;4.38;;;11.00;93.30;;;;;;5086885;28;20036;-81
2020/12/27 11:11:25;;;;;;;14.23;2.97;;;11.10;93.10;;;;;;5071138;28;20028;-82
2020/12/27 11:13:51;;;;;;;16.83;3.42;;;11.20;92.80;;;;;;5086883;28;20055;-83
2020/12/27 11:16:17;;;;;;;12.43;3.17;;;11.30;92.60;;;;;;5087044;28;20502;-81
2020/12/27 11:18:43;;;;;;;13.02;3.67;;;11.40;92.20;;;;;;5088837;28;20036;-81
2020/12/27 11:21:09;;;;;;;11.98;4.40;;;11.40;92.30;;;;;;5090238;28;20395;-81
2020/12/27 11:23:35;;;;;;;15.40;3.45;;;11.60;92.10;;;;;;5090261;28;20055;-82
2020/12/27 11:26:01;;;;;;;13.27;2.55;;;11.70;92.10;;;;;;5090634;28;20030;-81
2020/12/27 11:28:26;;;;;;;14.38;2.88;;;11.70;90.40;;;;;;5073186;28;20547;-84
2020/12/27 11:30:52;;;;;;;11.05;2.33;;;11.60;90.30;;;;;;5072919;28;20067;-82
2020/12/27 11:33:19;;;;;;;12.10;2.90;;;11.60;90.70;;;;;;5073090;28;20062;-82
2020/12/27 11:35:44;;;;;;;10.63;3.55;;;11.60;90.50;;;;;;5072978;28;20044;-83
2020/12/27 11:38:10;;;;;;;11.75;3.78;;;11.70;91.00;;;;;;5073047;28;20024;-81
2020/12/27 11:40:36;;;;;;;11.85;4.60;;;11.80;90.50;;;;;;5072611;28;20062;-84
2020/12/27 11:43:01;;;;;;;11.77;3.78;;;12.00;90.20;;;;;;5072848;28;20032;-80
2020/12/27 11:45:27;;;;;;;12.95;3.40;;;12.20;90.50;;;;;;5088936;28;20351;-81
2020/12/27 11:47:53;;;;;;;11.90;4.30;;;12.30;90.00;;;;;;5088922;28;20106;-81
2020/12/27 11:50:18;;;;;;;9.15;3.20;;;12.30;90.10;;;;;;5088796;28;20028;-83
2020/12/27 11:52:44;;;;;;;18.20;3.33;;;12.10;85.90;;;;;;5071543;28;20036;-81
2020/12/27 11:55:10;;;;;;;12.13;2.60;;;11.50;84.70;;;;;;5089967;28;20036;-80
2020/12/27 11:57:35;;;;;;;7.70;2.28;;;10.80;84.90;;;;;;5072017;28;20039;-82
2020/12/27 12:00:03;;;;;;;11.77;2.30;;;10.20;85.70;;;;;;5071650;28;20040;-82
2020/12/27 12:02:29;;;;;;;15.38;4.55;;;9.70;87.30;;;;;;5088255;28;20073;-81
2020/12/27 12:04:54;;;;;;;10.43;2.38;;;9.40;88.50;;;;;;5071928;28;20020;-83
2020/12/27 12:07:20;;;;;;;14.73;3.45;;;9.10;89.70;;;;;;5088851;28;20028;-82
2020/12/27 12:09:46;;;;;;;11.02;2.55;;;8.90;90.10;;;;;;5088868;28;20024;-83
2020/12/27 12:12:13;;;;;;;8.55;2.20;;;8.70;90.40;;;;;;5088961;28;20032;-80
2020/12/27 12:14:39;;;;;;;16.15;2.78;;;8.60;90.60;;;;;;5089106;28;20029;-83
2020/12/27 12:17:04;;;;;;;13.48;2.92;;;8.50;91.00;;;;;;5071372;28;20032;-81
2020/12/27 12:19:30;;;;;;;12.25;3.15;;;8.40;91.30;;;;;;5071753;28;20032;-80
2020/12/27 12:21:56;;;;;;;15.80;2.17;;;8.40;91.60;;;;;;5072033;28;20348;-81
2020/12/27 12:24:24;;;;;;;10.13;2.63;;;8.50;91.80;;;;;;5088555;28;20024;-82
2020/12/27 12:26:50;;;;;;;10.03;2.43;;;8.40;91.60;;;;;;5088060;28;20028;-81
2020/12/27 12:29:16;;;;;;;15.25;3.83;;;8.40;91.60;;;;;;5086736;28;20105;-81
2020/12/27 12:31:43;;;;;;;10.50;3.67;;;8.30;91.80;;;;;;5088866;28;20032;-81
2020/12/27 12:34:09;;;;;;;13.02;2.53;;;8.30;91.90;;;;;;5071181;28;20074;-79
2020/12/27 12:36:35;;;;;;;15.35;4.03;;;8.20;92.00;;;;;;5071329;28;20063;-81
2020/12/27 12:39:00;;;;;;;10.98;3.72;;;8.10;92.10;;;;;;5088167;28;20055;-82
2020/12/27 12:41:27;;;;;;;11.40;2.90;;;8.10;92.30;;;;;;5088109;28;20146;-80
2020/12/27 12:43:54;;;;;;;13.57;4.47;;;8.10;92.30;;;;;;5088107;28;20082;-80
2020/12/27 12:46:22;;;;;;;11.70;4.43;;;8.00;92.40;;;;;;5089710;28;20091;-82
2020/12/27 12:48:49;;;;;;;10.35;2.63;;;7.90;92.50;;;;;;5089057;28;20020;-81
2020/12/27 12:51:14;;;;;;;13.90;3.28;;;7.90;92.70;;;;;;5087657;28;20048;-80
2020/12/27 12:53:40;;;;;;;14.20;3.40;;;7.90;92.80;;;;;;5070757;28;20060;-81